sensor_id;sensor_type;location;lat;lon;timestamp;pressure;altitude;pressure_sealevel;temperature;humidity
57086;BME280;42964;42.910;23.792;2023-02-12T00:01:40;98708.50;;;-3.27;67.47
57086;BME280;42964;42.910;23.792;2023-02-12T00:06:39;98708.88;;;-3.21;67.52
57086;BME280;42964;42.910;23.792;2023-02-12T00:11:38;98701.56;;;-3.29;66.84
57086;BME280;42964;42.910;23.792;2023-02-12T00:16:36;98726.69;;;-3.33;67.30
57086;BME280;42964;42.910;23.792;2023-02-12T00:21:35;98670.97;;;-3.56;67.62
57086;BME280;42964;42.910;23.792;2023-02-12T00:26:34;98720.19;;;-3.29;67.78
57086;BME280;42964;42.910;23.792;2023-02-12T00:31:33;98728.75;;;-3.52;70.21
57086;BME280;42964;42.910;23.792;2023-02-12T00:36:32;98714.88;;;-3.57;70.45
57086;BME280;42964;42.910;23.792;2023-02-12T00:41:31;98719.53;;;-3.75;72.30
57086;BME280;42964;42.910;23.792;2023-02-12T00:46:30;98721.28;;;-3.74;71.81
57086;BME280;42964;42.910;23.792;2023-02-12T00:51:29;98667.13;;;-4.00;72.12
57086;BME280;42964;42.910;23.792;2023-02-12T00:56:28;98718.50;;;-3.53;71.25
57086;BME280;42964;42.910;23.792;2023-02-12T01:01:27;98719.25;;;-3.43;71.32
57086;BME280;42964;42.910;23.792;2023-02-12T01:06:26;98730.22;;;-3.30;71.72
57086;BME280;42964;42.910;23.792;2023-02-12T01:11:25;98726.56;;;-3.22;71.31
57086;BME280;42964;42.910;23.792;2023-02-12T01:16:23;98714.03;;;-3.07;70.87
57086;BME280;42964;42.910;23.792;2023-02-12T01:21:28;98698.44;;;-3.00;70.88
57086;BME280;42964;42.910;23.792;2023-02-12T01:26:29;98711.44;;;-2.96;70.72
57086;BME280;42964;42.910;23.792;2023-02-12T01:31:32;98693.09;;;-2.92;70.44
57086;BME280;42964;42.910;23.792;2023-02-12T01:36:32;98698.19;;;-2.92;70.53
57086;BME280;42964;42.910;23.792;2023-02-12T01:41:35;98688.72;;;-2.81;70.25
57086;BME280;42964;42.910;23.792;2023-02-12T01:46:34;98686.16;;;-2.81;70.31
57086;BME280;42964;42.910;23.792;2023-02-12T01:51:34;98688.72;;;-2.81;70.46
57086;BME280;42964;42.910;23.792;2023-02-12T01:56:34;98667.72;;;-2.78;70.19
57086;BME280;42964;42.910;23.792;2023-02-12T02:01:33;98684.53;;;-2.67;69.75
57086;BME280;42964;42.910;23.792;2023-02-12T02:06:53;98669.78;;;-2.73;69.70
57086;BME280;42964;42.910;23.792;2023-02-12T02:11:54;98668.44;;;-2.67;69.15
57086;BME280;42964;42.910;23.792;2023-02-12T02:17:41;98669.28;;;-2.80;68.93
57086;BME280;42964;42.910;23.792;2023-02-12T02:28:31;98675.63;;;-2.87;69.46
57086;BME280;42964;42.910;23.792;2023-02-12T02:33:38;98626.69;;;-3.23;69.21
57086;BME280;42964;42.910;23.792;2023-02-12T02:38:49;98693.41;;;-2.87;69.07
57086;BME280;42964;42.910;23.792;2023-02-12T02:43:50;98707.03;;;-2.98;69.80
57086;BME280;42964;42.910;23.792;2023-02-12T02:48:57;98698.94;;;-2.93;70.23
57086;BME280;42964;42.910;23.792;2023-02-12T02:54:11;98704.25;;;-2.89;70.46
57086;BME280;42964;42.910;23.792;2023-02-12T02:59:22;98691.00;;;-2.72;70.60
57086;BME280;42964;42.910;23.792;2023-02-12T03:04:31;98701.16;;;-2.72;70.58
57086;BME280;42964;42.910;23.792;2023-02-12T03:09:36;98692.56;;;-2.61;70.23
57086;BME280;42964;42.910;23.792;2023-02-12T03:14:43;98701.88;;;-2.61;69.66
57086;BME280;42964;42.910;23.792;2023-02-12T03:19:51;98663.63;;;-2.76;69.81
57086;BME280;42964;42.910;23.792;2023-02-12T03:24:57;98625.59;;;-2.88;68.91
57086;BME280;42964;42.910;23.792;2023-02-12T03:29:58;98682.44;;;-2.47;68.98
57086;BME280;42964;42.910;23.792;2023-02-12T03:50:45;98696.81;;;-2.35;68.22
57086;BME280;42964;42.910;23.792;2023-02-12T03:55:48;98649.75;;;-2.55;68.13
57086;BME280;42964;42.910;23.792;2023-02-12T04:00:50;98697.13;;;-2.17;68.27
57086;BME280;42964;42.910;23.792;2023-02-12T04:05:49;98693.38;;;-2.09;67.72
57086;BME280;42964;42.910;23.792;2023-02-12T04:16:11;98689.75;;;-1.86;68.01
57086;BME280;42964;42.910;23.792;2023-02-12T04:32:21;98699.81;;;-1.74;66.64
57086;BME280;42964;42.910;23.792;2023-02-12T04:42:28;98706.47;;;-1.76;67.06
57086;BME280;42964;42.910;23.792;2023-02-12T04:47:27;98700.44;;;-1.91;68.44
57086;BME280;42964;42.910;23.792;2023-02-12T04:52:25;98697.59;;;-2.09;69.20
57086;BME280;42964;42.910;23.792;2023-02-12T04:57:24;98711.88;;;-1.98;69.19
57086;BME280;42964;42.910;23.792;2023-02-12T05:02:23;98712.75;;;-1.97;69.48
57086;BME280;42964;42.910;23.792;2023-02-12T05:07:22;98707.47;;;-2.00;69.00
57086;BME280;42964;42.910;23.792;2023-02-12T05:12:21;98706.56;;;-1.88;69.33
57086;BME280;42964;42.910;23.792;2023-02-12T05:17:22;98711.75;;;-1.73;69.42
57086;BME280;42964;42.910;23.792;2023-02-12T05:22:21;98716.63;;;-1.62;68.92
57086;BME280;42964;42.910;23.792;2023-02-12T05:27:20;98723.47;;;-1.61;69.14
57086;BME280;42964;42.910;23.792;2023-02-12T05:32:19;98725.94;;;-1.76;68.90
57086;BME280;42964;42.910;23.792;2023-02-12T05:37:18;98719.41;;;-1.86;69.28
57086;BME280;42964;42.910;23.792;2023-02-12T05:42:17;98746.59;;;-1.85;70.01
57086;BME280;42964;42.910;23.792;2023-02-12T05:47:16;98740.72;;;-1.71;70.42
57086;BME280;42964;42.910;23.792;2023-02-12T05:52:14;98752.72;;;-1.55;69.68
57086;BME280;42964;42.910;23.792;2023-02-12T05:57:13;98750.78;;;-1.59;70.47
57086;BME280;42964;42.910;23.792;2023-02-12T06:02:12;98749.72;;;-1.49;70.04
57086;BME280;42964;42.910;23.792;2023-02-12T06:07:11;98753.88;;;-1.36;69.74
57086;BME280;42964;42.910;23.792;2023-02-12T06:12:10;98741.19;;;-1.22;69.42
57086;BME280;42964;42.910;23.792;2023-02-12T06:17:09;98749.19;;;-1.30;69.46
57086;BME280;42964;42.910;23.792;2023-02-12T06:22:08;98773.56;;;-1.34;69.90
57086;BME280;42964;42.910;23.792;2023-02-12T06:27:07;98764.94;;;-1.36;70.50
57086;BME280;42964;42.910;23.792;2023-02-12T06:32:06;98780.00;;;-1.26;70.93
57086;BME280;42964;42.910;23.792;2023-02-12T06:37:06;98712.19;;;-1.52;70.69
57086;BME280;42964;42.910;23.792;2023-02-12T06:42:04;98776.66;;;-1.25;71.05
57086;BME280;42964;42.910;23.792;2023-02-12T06:47:03;98766.31;;;-0.99;70.85
57086;BME280;42964;42.910;23.792;2023-02-12T06:52:02;98754.75;;;-0.80;69.62
57086;BME280;42964;42.910;23.792;2023-02-12T06:57:01;98771.31;;;-0.58;69.48
57086;BME280;42964;42.910;23.792;2023-02-12T07:02:00;98764.47;;;-0.44;68.39
57086;BME280;42964;42.910;23.792;2023-02-12T07:06:59;98773.63;;;-0.33;67.22
57086;BME280;42964;42.910;23.792;2023-02-12T07:11:58;98779.78;;;0.00;66.18
57086;BME280;42964;42.910;23.792;2023-02-12T07:16:58;98776.44;;;0.31;64.87
57086;BME280;42964;42.910;23.792;2023-02-12T07:21:57;98782.22;;;0.43;63.39
57086;BME280;42964;42.910;23.792;2023-02-12T07:26:56;98779.09;;;0.64;62.28
57086;BME280;42964;42.910;23.792;2023-02-12T07:31:55;98767.78;;;0.44;60.76
57086;BME280;42964;42.910;23.792;2023-02-12T07:36:54;98797.28;;;0.70;60.85
57086;BME280;42964;42.910;23.792;2023-02-12T07:41:55;98797.94;;;0.82;59.57
57086;BME280;42964;42.910;23.792;2023-02-12T07:46:54;98792.56;;;1.09;59.13
57086;BME280;42964;42.910;23.792;2023-02-12T07:51:52;98807.03;;;1.41;57.91
57086;BME280;42964;42.910;23.792;2023-02-12T07:56:54;98754.59;;;1.33;56.61
57086;BME280;42964;42.910;23.792;2023-02-12T08:01:53;98794.59;;;1.82;56.60
57086;BME280;42964;42.910;23.792;2023-02-12T08:06:55;98799.78;;;2.17;56.28
57086;BME280;42964;42.910;23.792;2023-02-12T08:11:54;98793.56;;;2.48;55.74
57086;BME280;42964;42.910;23.792;2023-02-12T08:16:53;98797.38;;;2.56;53.76
57086;BME280;42964;42.910;23.792;2023-02-12T08:21:53;98799.03;;;2.74;52.30
57086;BME280;42964;42.910;23.792;2023-02-12T08:26:53;98728.34;;;2.42;51.16
57086;BME280;42964;42.910;23.792;2023-02-12T08:31:56;98812.91;;;2.97;50.44
57086;BME280;42964;42.910;23.792;2023-02-12T08:36:55;98817.59;;;3.06;50.99
57086;BME280;42964;42.910;23.792;2023-02-12T08:41:56;98779.38;;;2.92;49.42
57086;BME280;42964;42.910;23.792;2023-02-12T08:46:55;98820.59;;;3.34;48.72
57086;BME280;42964;42.910;23.792;2023-02-12T08:51:57;98830.38;;;3.62;47.60
57086;BME280;42964;42.910;23.792;2023-02-12T08:56:58;98823.75;;;3.87;48.27
57086;BME280;42964;42.910;23.792;2023-02-12T09:01:57;98771.84;;;3.75;47.30
57086;BME280;42964;42.910;23.792;2023-02-12T09:06:57;98846.00;;;4.28;47.30
57086;BME280;42964;42.910;23.792;2023-02-12T09:11:56;98799.91;;;4.32;47.70
57086;BME280;42964;42.910;23.792;2023-02-12T09:16:55;98840.78;;;4.90;47.64
57086;BME280;42964;42.910;23.792;2023-02-12T09:21:55;98847.22;;;5.01;46.94
57086;BME280;42964;42.910;23.792;2023-02-12T09:26:54;98855.53;;;5.39;47.43
57086;BME280;42964;42.910;23.792;2023-02-12T09:31:53;98854.19;;;5.49;46.27
57086;BME280;42964;42.910;23.792;2023-02-12T09:36:52;98837.91;;;5.50;45.36
57086;BME280;42964;42.910;23.792;2023-02-12T09:52:26;98883.50;;;5.30;46.39
57086;BME280;42964;42.910;23.792;2023-02-12T09:57:35;98892.72;;;5.25;46.97
57086;BME280;42964;42.910;23.792;2023-02-12T10:02:37;98884.66;;;5.16;47.36
57086;BME280;42964;42.910;23.792;2023-02-12T10:28:33;98895.75;;;5.60;48.98
57086;BME280;42964;42.910;23.792;2023-02-12T10:33:40;98861.06;;;5.50;47.90
57086;BME280;42964;42.910;23.792;2023-02-12T10:38:44;98904.16;;;5.78;47.30
57086;BME280;42964;42.910;23.792;2023-02-12T10:43:44;98890.56;;;5.82;48.40
57086;BME280;42964;42.910;23.792;2023-02-12T10:48:45;98905.91;;;6.27;47.96
57086;BME280;42964;42.910;23.792;2023-02-12T10:53:46;98901.28;;;6.43;46.03
57086;BME280;42964;42.910;23.792;2023-02-12T11:03:47;98905.72;;;6.23;46.54
57086;BME280;42964;42.910;23.792;2023-02-12T11:08:46;98913.53;;;6.50;46.19
57086;BME280;42964;42.910;23.792;2023-02-12T11:13:53;98894.25;;;6.38;45.90
57086;BME280;42964;42.910;23.792;2023-02-12T11:18:59;98916.28;;;6.54;45.46
57086;BME280;42964;42.910;23.792;2023-02-12T11:24:31;98905.84;;;6.51;46.14
57086;BME280;42964;42.910;23.792;2023-02-12T11:29:31;98906.28;;;6.64;46.65
57086;BME280;42964;42.910;23.792;2023-02-12T11:34:31;98917.78;;;6.73;46.56
57086;BME280;42964;42.910;23.792;2023-02-12T11:39:31;98914.31;;;6.47;46.78
57086;BME280;42964;42.910;23.792;2023-02-12T11:44:35;98914.00;;;6.14;47.29
57086;BME280;42964;42.910;23.792;2023-02-12T11:49:47;98902.19;;;5.95;48.14
57086;BME280;42964;42.910;23.792;2023-02-12T11:54:49;98859.69;;;5.60;48.37
57086;BME280;42964;42.910;23.792;2023-02-12T11:59:49;98909.22;;;5.75;48.56
57086;BME280;42964;42.910;23.792;2023-02-12T12:04:49;98913.31;;;5.70;49.06
57086;BME280;42964;42.910;23.792;2023-02-12T12:10:15;98915.50;;;5.83;49.16
57086;BME280;42964;42.910;23.792;2023-02-12T12:15:41;98923.63;;;5.94;49.03
57086;BME280;42964;42.910;23.792;2023-02-12T12:21:24;98931.78;;;5.82;49.66
57086;BME280;42964;42.910;23.792;2023-02-12T12:26:28;98927.84;;;5.68;49.88
57086;BME280;42964;42.910;23.792;2023-02-12T12:31:32;98936.41;;;5.46;50.12
57086;BME280;42964;42.910;23.792;2023-02-12T12:53:23;98928.88;;;5.73;49.22
57086;BME280;42964;42.910;23.792;2023-02-12T13:09:01;98953.50;;;5.44;50.49
57086;BME280;42964;42.910;23.792;2023-02-12T13:25:06;98977.47;;;5.20;50.93
57086;BME280;42964;42.910;23.792;2023-02-12T13:35:20;98991.44;;;5.48;50.03
57086;BME280;42964;42.910;23.792;2023-02-12T13:40:26;99000.50;;;5.38;50.36
57086;BME280;42964;42.910;23.792;2023-02-12T14:01:10;99010.53;;;5.75;50.22
57086;BME280;42964;42.910;23.792;2023-02-12T14:06:15;99017.72;;;5.84;50.02
57086;BME280;42964;42.910;23.792;2023-02-12T14:11:18;99010.09;;;6.10;49.90
57086;BME280;42964;42.910;23.792;2023-02-12T14:16:34;99024.81;;;6.36;50.07
57086;BME280;42964;42.910;23.792;2023-02-12T14:21:34;99029.78;;;6.56;49.52
57086;BME280;42964;42.910;23.792;2023-02-12T14:26:35;99041.19;;;6.63;48.85
57086;BME280;42964;42.910;23.792;2023-02-12T14:31:36;99046.44;;;6.64;48.97
57086;BME280;42964;42.910;23.792;2023-02-12T14:36:38;99059.16;;;6.59;48.27
57086;BME280;42964;42.910;23.792;2023-02-12T14:41:38;99037.59;;;6.33;48.56
57086;BME280;42964;42.910;23.792;2023-02-12T14:46:47;99061.75;;;6.13;49.68
57086;BME280;42964;42.910;23.792;2023-02-12T14:51:54;99076.44;;;5.70;50.34
57086;BME280;42964;42.910;23.792;2023-02-12T14:56:58;99074.75;;;5.29;51.15
57086;BME280;42964;42.910;23.792;2023-02-12T15:02:01;99092.53;;;5.23;51.02
57086;BME280;42964;42.910;23.792;2023-02-12T15:07:07;99016.94;;;4.59;51.41
57086;BME280;42964;42.910;23.792;2023-02-12T15:12:25;99103.53;;;4.99;51.55
57086;BME280;42964;42.910;23.792;2023-02-12T15:17:33;99116.38;;;4.80;52.24
57086;BME280;42964;42.910;23.792;2023-02-12T15:22:39;99121.44;;;4.78;52.66
57086;BME280;42964;42.910;23.792;2023-02-12T15:27:44;99132.56;;;4.77;53.08
57086;BME280;42964;42.910;23.792;2023-02-12T15:32:44;99135.47;;;4.85;52.83
57086;BME280;42964;42.910;23.792;2023-02-12T15:37:45;99139.25;;;4.93;52.91
57086;BME280;42964;42.910;23.792;2023-02-12T15:42:56;99158.91;;;4.91;53.02
57086;BME280;42964;42.910;23.792;2023-02-12T15:53:07;99187.34;;;4.57;53.89
57086;BME280;42964;42.910;23.792;2023-02-12T15:58:13;99190.22;;;4.45;54.57
57086;BME280;42964;42.910;23.792;2023-02-12T16:03:33;99188.19;;;4.38;54.45
57086;BME280;42964;42.910;23.792;2023-02-12T16:08:33;99205.00;;;4.31;55.10
57086;BME280;42964;42.910;23.792;2023-02-12T16:13:34;99206.84;;;4.34;55.00
57086;BME280;42964;42.910;23.792;2023-02-12T16:18:34;99216.84;;;4.27;55.02
57086;BME280;42964;42.910;23.792;2023-02-12T16:23:33;99224.78;;;4.32;55.20
57086;BME280;42964;42.910;23.792;2023-02-12T16:28:33;99222.22;;;4.32;55.05
57086;BME280;42964;42.910;23.792;2023-02-12T16:33:34;99240.03;;;4.29;55.21
57086;BME280;42964;42.910;23.792;2023-02-12T16:38:45;99257.09;;;4.27;55.74
57086;BME280;42964;42.910;23.792;2023-02-12T16:43:50;99261.09;;;4.22;56.00
57086;BME280;42964;42.910;23.792;2023-02-12T16:49:16;99269.53;;;4.19;56.00
57086;BME280;42964;42.910;23.792;2023-02-12T16:59:24;99229.56;;;3.72;56.18
57086;BME280;42964;42.910;23.792;2023-02-12T17:04:23;99270.94;;;3.95;56.52
57086;BME280;42964;42.910;23.792;2023-02-12T17:09:22;99298.81;;;4.05;56.86
57086;BME280;42964;42.910;23.792;2023-02-12T17:14:21;99307.91;;;3.98;57.39
57086;BME280;42964;42.910;23.792;2023-02-12T17:19:20;99231.09;;;3.34;58.20
57086;BME280;42964;42.910;23.792;2023-02-12T17:24:22;99317.72;;;3.73;58.79
57086;BME280;42964;42.910;23.792;2023-02-12T17:29:23;99308.38;;;3.73;58.62
57086;BME280;42964;42.910;23.792;2023-02-12T17:34:23;99318.66;;;3.73;58.70
57086;BME280;42964;42.910;23.792;2023-02-12T17:39:23;99314.78;;;3.65;58.98
57086;BME280;42964;42.910;23.792;2023-02-12T17:44:22;99315.50;;;3.62;59.15
57086;BME280;42964;42.910;23.792;2023-02-12T17:49:21;99331.06;;;3.65;59.35
57086;BME280;42964;42.910;23.792;2023-02-12T17:54:20;99338.84;;;3.51;59.39
57086;BME280;42964;42.910;23.792;2023-02-12T17:59:19;99351.69;;;3.34;60.03
57086;BME280;42964;42.910;23.792;2023-02-12T18:04:18;99343.50;;;3.25;60.12
57086;BME280;42964;42.910;23.792;2023-02-12T18:09:17;99351.50;;;3.15;60.85
57086;BME280;42964;42.910;23.792;2023-02-12T18:14:16;99347.94;;;2.96;62.06
57086;BME280;42964;42.910;23.792;2023-02-12T18:19:15;99359.59;;;2.75;62.92
57086;BME280;42964;42.910;23.792;2023-02-12T18:24:14;99367.22;;;2.58;63.91
57086;BME280;42964;42.910;23.792;2023-02-12T18:29:13;99370.03;;;2.48;63.72
57086;BME280;42964;42.910;23.792;2023-02-12T18:34:12;99367.59;;;2.35;64.25
57086;BME280;42964;42.910;23.792;2023-02-12T18:39:11;99196.75;;;1.28;64.45
57086;BME280;42964;42.910;23.792;2023-02-12T18:44:10;99366.16;;;2.10;64.94
57086;BME280;42964;42.910;23.792;2023-02-12T18:49:10;99365.28;;;1.95;65.57
57086;BME280;42964;42.910;23.792;2023-02-12T18:54:12;99384.13;;;1.97;65.95
57086;BME280;42964;42.910;23.792;2023-02-12T18:59:13;99386.09;;;1.86;66.14
57086;BME280;42964;42.910;23.792;2023-02-12T19:04:13;99381.66;;;1.84;66.12
57086;BME280;42964;42.910;23.792;2023-02-12T19:09:15;99363.25;;;1.61;66.22
57086;BME280;42964;42.910;23.792;2023-02-12T19:14:16;99382.16;;;1.63;66.32
57086;BME280;42964;42.910;23.792;2023-02-12T19:19:16;99380.44;;;1.49;66.44
57086;BME280;42964;42.910;23.792;2023-02-12T19:24:16;99371.72;;;1.32;66.67
57086;BME280;42964;42.910;23.792;2023-02-12T19:29:15;99386.50;;;1.23;67.08
57086;BME280;42964;42.910;23.792;2023-02-12T19:34:18;99393.03;;;1.04;67.96
57086;BME280;42964;42.910;23.792;2023-02-12T19:39:20;99400.00;;;0.94;68.10
57086;BME280;42964;42.910;23.792;2023-02-12T19:44:23;99394.69;;;0.77;68.03
57086;BME280;42964;42.910;23.792;2023-02-12T19:49:25;99401.50;;;0.77;68.72
57086;BME280;42964;42.910;23.792;2023-02-12T19:54:25;99420.47;;;0.67;68.86
57086;BME280;42964;42.910;23.792;2023-02-12T19:59:24;99423.69;;;0.51;69.18
57086;BME280;42964;42.910;23.792;2023-02-12T20:04:24;99422.63;;;0.47;69.69
57086;BME280;42964;42.910;23.792;2023-02-12T20:09:23;99423.19;;;0.43;69.40
57086;BME280;42964;42.910;23.792;2023-02-12T20:14:23;99421.09;;;0.38;69.58
57086;BME280;42964;42.910;23.792;2023-02-12T20:19:24;99424.72;;;0.28;69.69
57086;BME280;42964;42.910;23.792;2023-02-12T20:24:26;99425.09;;;0.21;70.51
57086;BME280;42964;42.910;23.792;2023-02-12T20:29:25;99431.38;;;0.13;70.64
57086;BME280;42964;42.910;23.792;2023-02-12T20:34:25;99300.78;;;-0.70;71.07
57086;BME280;42964;42.910;23.792;2023-02-12T20:39:24;99422.47;;;-0.06;71.31
57086;BME280;42964;42.910;23.792;2023-02-12T20:44:23;99446.22;;;-0.07;72.21
57086;BME280;42964;42.910;23.792;2023-02-12T20:49:22;99424.09;;;-0.20;72.18
57086;BME280;42964;42.910;23.792;2023-02-12T20:54:21;99461.06;;;-0.01;72.34
57086;BME280;42964;42.910;23.792;2023-02-12T20:59:20;99456.16;;;0.02;73.06
57086;BME280;42964;42.910;23.792;2023-02-12T21:04:18;99468.56;;;0.09;72.97
57086;BME280;42964;42.910;23.792;2023-02-12T21:09:17;99480.25;;;0.05;73.52
57086;BME280;42964;42.910;23.792;2023-02-12T21:14:17;99474.78;;;0.13;73.59
57086;BME280;42964;42.910;23.792;2023-02-12T21:19:16;99472.03;;;0.23;73.97
57086;BME280;42964;42.910;23.792;2023-02-12T21:24:23;99476.97;;;0.33;73.41
57086;BME280;42964;42.910;23.792;2023-02-12T21:29:22;99487.41;;;0.36;73.03
57086;BME280;42964;42.910;23.792;2023-02-12T21:34:23;99484.63;;;0.33;73.81
57086;BME280;42964;42.910;23.792;2023-02-12T21:39:25;99492.41;;;0.35;73.71
57086;BME280;42964;42.910;23.792;2023-02-12T21:44:25;99502.81;;;0.38;73.68
57086;BME280;42964;42.910;23.792;2023-02-12T21:49:24;99489.28;;;0.39;73.76
57086;BME280;42964;42.910;23.792;2023-02-12T21:54:25;99504.72;;;0.54;73.84
57086;BME280;42964;42.910;23.792;2023-02-12T21:59:24;99499.16;;;0.59;73.86
57086;BME280;42964;42.910;23.792;2023-02-12T22:04:24;99421.47;;;0.17;73.45
57086;BME280;42964;42.910;23.792;2023-02-12T22:09:23;99449.31;;;0.39;73.22
57086;BME280;42964;42.910;23.792;2023-02-12T22:14:22;99509.22;;;0.83;72.58
57086;BME280;42964;42.910;23.792;2023-02-12T22:19:21;99518.94;;;0.88;72.75
57086;BME280;42964;42.910;23.792;2023-02-12T22:24:20;99527.13;;;0.96;72.71
57086;BME280;42964;42.910;23.792;2023-02-12T22:29:19;99526.03;;;0.93;72.13
57086;BME280;42964;42.910;23.792;2023-02-12T22:34:18;99518.25;;;0.91;72.03
57086;BME280;42964;42.910;23.792;2023-02-12T22:39:17;99510.78;;;0.94;71.52
57086;BME280;42964;42.910;23.792;2023-02-12T22:44:16;99521.53;;;1.02;71.11
57086;BME280;42964;42.910;23.792;2023-02-12T22:49:16;99513.56;;;0.97;70.52
57086;BME280;42964;42.910;23.792;2023-02-12T22:54:16;99518.75;;;0.99;70.62
57086;BME280;42964;42.910;23.792;2023-02-12T22:59:15;99525.47;;;0.97;70.69
57086;BME280;42964;42.910;23.792;2023-02-12T23:04:15;99534.19;;;0.87;71.14
57086;BME280;42964;42.910;23.792;2023-02-12T23:09:16;99536.56;;;0.59;72.53
57086;BME280;42964;42.910;23.792;2023-02-12T23:14:17;99549.56;;;0.62;72.47
57086;BME280;42964;42.910;23.792;2023-02-12T23:19:16;99541.69;;;0.59;72.50
57086;BME280;42964;42.910;23.792;2023-02-12T23:24:15;99558.63;;;0.70;72.57
57086;BME280;42964;42.910;23.792;2023-02-12T23:29:14;99556.63;;;0.66;73.05
57086;BME280;42964;42.910;23.792;2023-02-12T23:34:13;99545.53;;;0.40;74.03
57086;BME280;42964;42.910;23.792;2023-02-12T23:39:12;99553.84;;;0.50;73.90
57086;BME280;42964;42.910;23.792;2023-02-12T23:44:11;99550.66;;;0.40;74.58
57086;BME280;42964;42.910;23.792;2023-02-12T23:49:09;99544.97;;;0.44;74.40
57086;BME280;42964;42.910;23.792;2023-02-12T23:54:09;99520.81;;;0.39;74.38
57086;BME280;42964;42.910;23.792;2023-02-12T23:59:08;99547.16;;;0.52;74.15
